CMA CGM Columba — 2DBC9 — position and weather

sailwx.info

Track history (hours):
 
Tides and Currents Weather Stations Pressure Air Temp Water Temp Dewpoint Dewpoint Depression Visibility Wind Speed Wind Dir Waves Ship Positions

CMA CGM Columba

Last reported at 2016-Dec-06 17:29 UTC. Time now 2016-Dec-06 18:02 UTC.
Position N 37°48' W 122°19'.

Length 363 m; draft 10.8 m.

Type: Ship (hazmat cat A). MMSI: 235077448.

Date/timePositionNaut miles runAvg speedWind from/ knotsBaromVisibWave heightAir tempDewpointWater temp
2016-Dec-06 17:29N 37°48' W 122°19'0 0.0
2016-Dec-06 16:32N 37°48' W 122°19'0 0.0
2016-Dec-06 15:32N 37°48' W 122°19'0 0.0
2016-Dec-06 14:32N 37°48' W 122°19'1 0.6
2016-Dec-06 13:33N 37°48' W 122°20'7 6.9
2016-Dec-06 12:33N 37°49' W 122°28'1211.8
2016-Dec-06 11:33N 37°42' W 122°41'1111.3
2016-Dec-06 10:33N 37°31' W 122°40'2110.6
2016-Dec-06 08:33N 37°10' W 122°39'1211.8
2016-Dec-06 07:33N 36°59' W 122°34'1211.9
2016-Dec-06 06:33N 36°48' W 122°28'1111.5
2016-Dec-06 05:33N 36°37' W 122°23'1211.6
2016-Dec-06 04:33N 36°27' W 122°17'1111.4
2016-Dec-06 03:33N 36°16' W 122°11'1111.4
2016-Dec-06 02:33N 36°07' W 122°04'1111.5
2016-Dec-06 01:33N 35°57' W 121°57'1111.4
2016-Dec-06 00:33N 35°47' W 121°50'1111.2
2016-Dec-05 23:33N 35°37' W 121°43'1111.3
2016-Dec-05 22:33N 35°28' W 121°36'9510.4
2016-Dec-05 13:24N 34°18' W 120°17'1211.4
2016-Dec-05 12:21N 34°15' W 120°02'2512.4
2016-Dec-05 10:19N 34°08' W 119°33'1013.1
2016-Dec-05 09:33N 34°06' W 119°21'1313.0
2016-Dec-05 08:33N 34°00' W 119°07'1212.3
2016-Dec-05 07:34N 33°54' W 118°54'1211.8
2016-Dec-05 06:34N 33°49' W 118°42'1211.7
2016-Dec-05 05:34N 33°43' W 118°30'1111.1
2016-Dec-05 04:33N 33°39' W 118°17'5 5.2
2016-Dec-05 03:33N 33°44' W 118°16'0 0.3
2016-Dec-05 02:31N 33°44' W 118°15'0 0.0
2016-Dec-05 01:31N 33°44' W 118°15'0 0.0
2016-Dec-05 00:31N 33°44' W 118°15'0 0.0
2016-Dec-04 23:28N 33°44' W 118°15'0 0.0
2016-Dec-04 22:28N 33°44' W 118°15'0 0.0
2016-Dec-04 21:31N 33°44' W 118°15'0 0.0
2016-Dec-04 20:10N 33°44' W 118°15'0 0.0
2016-Dec-04 19:07N 33°44' W 118°15'0 0.0
2016-Dec-04 18:25N 33°44' W 118°15'0 0.0
2016-Dec-04 17:31N 33°44' W 118°15'0 0.0
2016-Dec-04 16:31N 33°44' W 118°15'0 0.0
2016-Dec-04 15:31N 33°44' W 118°15'0 0.0
2016-Dec-04 14:13N 33°44' W 118°15'0 0.0
2016-Dec-04 13:31N 33°44' W 118°15'0 0.0
2016-Dec-04 12:31N 33°44' W 118°15'0 0.0
2016-Dec-04 11:31N 33°44' W 118°15'0 0.0
2016-Dec-04 10:31N 33°44' W 118°15'0 0.0
2016-Dec-04 09:28N 33°44' W 118°15'0 0.0
2016-Dec-04 08:31N 33°44' W 118°15'0 0.0
2016-Dec-04 07:31N 33°44' W 118°15'0 0.0
2016-Dec-04 06:31N 33°44' W 118°15'0 0.0
2016-Dec-04 05:25N 33°44' W 118°15'0 0.0
2016-Dec-04 04:31N 33°44' W 118°15'0 0.0
2016-Dec-04 02:22N 33°44' W 118°15'0 0.0
2016-Dec-04 01:31N 33°44' W 118°15'0 0.0
2016-Dec-04 00:22N 33°44' W 118°15'0 0.0
2016-Dec-03 23:28N 33°44' W 118°15'0 0.0
2016-Dec-03 22:07N 33°44' W 118°15'0 0.0
2016-Dec-03 21:28N 33°44' W 118°15'0 0.0
2016-Dec-02 12:28N 33°44' W 118°15'0 0.0
2016-Dec-02 00:31N 33°44' W 118°15'0 0.0
2016-Dec-01 23:28N 33°44' W 118°15'0 0.0
2016-Dec-01 22:25N 33°44' W 118°15'0 0.0
2016-Dec-01 21:31N 33°44' W 118°15'0 0.0
2016-Dec-01 20:07N 33°44' W 118°15'0 0.0
2016-Dec-01 15:10N 33°44' W 118°15'1 0.6
2016-Dec-01 13:16N 33°43' W 118°16'4 4.2
2016-Dec-01 12:15N 33°39' W 118°13'6 8.1
2016-Dec-01 11:33N 33°36' W 118°19'1110.8
2016-Dec-01 10:33N 33°36' W 118°32'1110.8
2016-Dec-01 09:33N 33°36' W 118°45'1610.8
2016-Dec-01 08:06N 33°36' W 119°04'1911.3
2016-Dec-01 06:26N 33°36' W 119°27'1314.5
2016-Dec-01 05:33N 33°36' W 119°42'1615.2
2016-Dec-01 04:29N 33°36' W 120°01'3115.1
2016-Dec-01 02:26N 33°36' W 120°39'1515.1
2016-Dec-01 01:26N 33°36' W 120°57'1615.1
2016-Dec-01 00:23N 33°36' W 121°16'  
Track history (hours):
 
Tides and Currents Weather Stations Pressure Air Temp Water Temp Dewpoint Dewpoint Depression Visibility Wind Speed Wind Dir Waves Ship Positions

CMA CGM Columba

Last reported at 2016-Dec-06 17:29 UTC. Time now 2016-Dec-06 18:02 UTC.
Position N 37°48' W 122°19'.

Length 363 m; draft 10.8 m.

Type: Ship (hazmat cat A). MMSI: 235077448.

Date/timePositionNaut miles runAvg speedWind from/ knotsBaromVisibWave heightAir tempDewpointWater temp
2016-Dec-06 17:29N 37°48' W 122°19'0 0.0
2016-Dec-06 16:32N 37°48' W 122°19'0 0.0
2016-Dec-06 15:32N 37°48' W 122°19'0 0.0
2016-Dec-06 14:32N 37°48' W 122°19'1 0.6
2016-Dec-06 13:33N 37°48' W 122°20'7 6.9
2016-Dec-06 12:33N 37°49' W 122°28'1211.8
2016-Dec-06 11:33N 37°42' W 122°41'1111.3
2016-Dec-06 10:33N 37°31' W 122°40'2110.6
2016-Dec-06 08:33N 37°10' W 122°39'1211.8
2016-Dec-06 07:33N 36°59' W 122°34'1211.9
2016-Dec-06 06:33N 36°48' W 122°28'1111.5
2016-Dec-06 05:33N 36°37' W 122°23'1211.6
2016-Dec-06 04:33N 36°27' W 122°17'1111.4
2016-Dec-06 03:33N 36°16' W 122°11'1111.4
2016-Dec-06 02:33N 36°07' W 122°04'1111.5
2016-Dec-06 01:33N 35°57' W 121°57'1111.4
2016-Dec-06 00:33N 35°47' W 121°50'1111.2
2016-Dec-05 23:33N 35°37' W 121°43'1111.3
2016-Dec-05 22:33N 35°28' W 121°36'9510.4
2016-Dec-05 13:24N 34°18' W 120°17'1211.4
2016-Dec-05 12:21N 34°15' W 120°02'2512.4
2016-Dec-05 10:19N 34°08' W 119°33'1013.1
2016-Dec-05 09:33N 34°06' W 119°21'1313.0
2016-Dec-05 08:33N 34°00' W 119°07'1212.3
2016-Dec-05 07:34N 33°54' W 118°54'1211.8
2016-Dec-05 06:34N 33°49' W 118°42'1211.7
2016-Dec-05 05:34N 33°43' W 118°30'1111.1
2016-Dec-05 04:33N 33°39' W 118°17'5 5.2
2016-Dec-05 03:33N 33°44' W 118°16'0 0.3
2016-Dec-05 02:31N 33°44' W 118°15'0 0.0
2016-Dec-05 01:31N 33°44' W 118°15'0 0.0
2016-Dec-05 00:31N 33°44' W 118°15'0 0.0
2016-Dec-04 23:28N 33°44' W 118°15'0 0.0
2016-Dec-04 22:28N 33°44' W 118°15'0 0.0
2016-Dec-04 21:31N 33°44' W 118°15'0 0.0
2016-Dec-04 20:10N 33°44' W 118°15'0 0.0
2016-Dec-04 19:07N 33°44' W 118°15'0 0.0
2016-Dec-04 18:25N 33°44' W 118°15'0 0.0
2016-Dec-04 17:31N 33°44' W 118°15'0 0.0
2016-Dec-04 16:31N 33°44' W 118°15'0 0.0
2016-Dec-04 15:31N 33°44' W 118°15'0 0.0
2016-Dec-04 14:13N 33°44' W 118°15'0 0.0
2016-Dec-04 13:31N 33°44' W 118°15'0 0.0
2016-Dec-04 12:31N 33°44' W 118°15'0 0.0
2016-Dec-04 11:31N 33°44' W 118°15'0 0.0
2016-Dec-04 10:31N 33°44' W 118°15'0 0.0
2016-Dec-04 09:28N 33°44' W 118°15'0 0.0
2016-Dec-04 08:31N 33°44' W 118°15'0 0.0
2016-Dec-04 07:31N 33°44' W 118°15'0 0.0
2016-Dec-04 06:31N 33°44' W 118°15'0 0.0
2016-Dec-04 05:25N 33°44' W 118°15'0 0.0
2016-Dec-04 04:31N 33°44' W 118°15'0 0.0
2016-Dec-04 02:22N 33°44' W 118°15'0 0.0
2016-Dec-04 01:31N 33°44' W 118°15'0 0.0
2016-Dec-04 00:22N 33°44' W 118°15'0 0.0
2016-Dec-03 23:28N 33°44' W 118°15'0 0.0
2016-Dec-03 22:07N 33°44' W 118°15'0 0.0
2016-Dec-03 21:28N 33°44' W 118°15'0 0.0
2016-Dec-02 12:28N 33°44' W 118°15'0 0.0
2016-Dec-02 00:31N 33°44' W 118°15'0 0.0
2016-Dec-01 23:28N 33°44' W 118°15'0 0.0
2016-Dec-01 22:25N 33°44' W 118°15'0 0.0
2016-Dec-01 21:31N 33°44' W 118°15'0 0.0
2016-Dec-01 20:07N 33°44' W 118°15'0 0.0
2016-Dec-01 15:10N 33°44' W 118°15'1 0.6
2016-Dec-01 13:16N 33°43' W 118°16'4 4.2
2016-Dec-01 12:15N 33°39' W 118°13'6 8.1
2016-Dec-01 11:33N 33°36' W 118°19'1110.8
2016-Dec-01 10:33N 33°36' W 118°32'1110.8
2016-Dec-01 09:33N 33°36' W 118°45'1610.8
2016-Dec-01 08:06N 33°36' W 119°04'1911.3
2016-Dec-01 06:26N 33°36' W 119°27'1314.5
2016-Dec-01 05:33N 33°36' W 119°42'1615.2
2016-Dec-01 04:29N 33°36' W 120°01'3115.1
2016-Dec-01 02:26N 33°36' W 120°39'1515.1
2016-Dec-01 01:26N 33°36' W 120°57'1615.1
2016-Dec-01 00:23N 33°36' W 121°16'  

Dump ship's entire track history